SBPA/POA METAR and TAF weather

Enter ICAO airport designator
Station Type Date Time Source
SBPA METAR 2022/01/28 00:00 UTC NOAA

SBPA 280000Z 14008KT CAVOK 22/16 Q1015


Station Type Date Time Source
SBPA Decoded METAR 2022/01/28 00:00 UTC NOAA

Porto Alegre Aero-Porto , Brazil (SBPA) 30-00S 051-11W 3M
Jan 27, 2022 - 07:00 PM EST / 2022.01.28 0000 UTC
Wind: from the SE (140 degrees) at 9 MPH (8 KT):0
Visibility: greater than 7 mile(s):0
Temperature: 71 F (22 C)
Dew Point: 60 F (16 C)
Relative Humidity: 68%
Pressure (altimeter): 29.97 in. Hg (1015 hPa)
ob: SBPA 280000Z 14008KT CAVOK 22/16 Q1015
cycle: 0

Station Type Date Time Source
SBPA TAF 2022/01/28 00:00 UTC NOAA

TAF SBPA 272100Z 2800/2824 11008KT 9999 SCT040 TN18/2808Z TX26/2818Z
BECMG 2820/2822 CAVOK
RMK PDW

Example: see airport list